AirNav   Air Wisconsin Up To $57,000 Bonus
 
 1726 users online  

48MO Lions Emergency Evac Heliport
California, Missouri, USA

GOING TO CALIFORNIA?


FAA INFORMATION EFFECTIVE 17 JUNE 2021

Location

FAA Identifier: 48MO
Lat/Long: 38-37-38.4600N 092-32-25.9400W
38-37.641000N 092-32.432333W
38.6273500,-92.5405389
(estimated)
Elevation: 860 ft. / 262 m (estimated)
Variation: 04E (1985)
From city: 1 mile E of CALIFORNIA, MO
Time zone: UTC -5 (UTC -6 during Standard Time)
Zip code: 65018

Heliport Operations

Heliport use: Private use, MEDICAL USE.
Activation date: 05/1991
Control tower: no
ARTCC: KANSAS CITY CENTER
FSS: COLUMBIA FLIGHT SERVICE STATION
Attendance: UNATNDD
Wind indicator: lighted
Segmented circle: no
Lights: ACTVT PERIMETER LGTS - 123.05.

Heliport Communications

WX ASOS at JEF (18 nm E): 133.625 (573-635-9266)
WX ASOS at COU (19 nm NE): 128.45 (573-499-1400)

Nearby radio navigation aids

VOR radial/distance  VOR name  Freq  Var
COUr234/18.7COLUMBIA VOR/DME110.2000E
HLVr207/35.0HALLSVILLE VORTAC114.2006E
SHYr005/35.3SUNSHINE VOR/DME108.4000E

Heliport Services

Runway Information

Helipad H1

Dimensions: 30 x 30 ft. / 9 x 9 m
Surface: concrete
Runway edge lights: PERI
Latitude: 38-37.641000N
Longitude: 092-32.432333W
Elevation: 860.0 ft.
Traffic pattern: leftleft

Heliport Ownership and Management from official FAA records

Ownership: Privately-owned
Owner: CALIFORNIA LIONS CLUB
CITY OF CALIFORNIA
CALIFORNIA, MO 65018
Phone (573) 796-3151
ASK FOR BECKY LAWSON
Manager: CITY CLERK
500 S OAK STREET
CALIFORNIA, MO 65018
Phone (573) 796-2500

Additional Remarks

A53-H1 PLINES SOUTH OF HELIPAD MKD WITH DAY GLOW BALLS; POWER POLE 30 FT ENE 100 FT MKD WITH RED LGTS; POWER POLL 30 FT WNE 120 FT MKD WITH RED LGTS.
FOR CD CTC MIZZOU APCH AT 417-868-5620/5619.

Instrument Procedures

There are no published instrument procedures at 48MO.

Some nearby airports with instrument procedures:

H79 - Eldon Model Airpark (16 nm S)
KJEF - Jefferson City Memorial Airport (18 nm E)
KCOU - Columbia Regional Airport (19 nm NE)
KVER - Jesse Viertel Memorial Airport (20 nm N)
KFTT - Elton Hensley Memorial Airport (28 nm NE)
 
Loc | Ops | Rwys | IFR | FBO | Links
Com | Nav | Svcs | Stats | Notes
Area around 48MO (Lions Emergency Evac Heliport)
 
Road maps at: MapQuest Bing Google
 
Aerial photo
No photo
 
Sectional chart

 
Airport distance calculator
Flying to Lions Emergency Evac Heliport? Find the distance to fly.

From to 48MO

Sunrise and sunset
Times for 24-Jun-2021
 Local
(UTC-5)
 Zulu
(UTC)
Morning civil twilight05:1610:16
Sunrise05:4810:48
Sunset20:3701:37
Evening civil twilight21:0902:09

Current date and time
Zulu (UTC)  24-Jun-2021 18:06:15
Local (UTC-5)  24-Jun-2021 13:06:15
 
METAR
KJEF 
18nm E 
241753Z 08006KT 10SM FEW075 SCT100 BKN120 23/20 A2997 RMK AO2 LTG DSNT W AND NW RAE42 SLP134 P0002 60004 T02330200 10250 20233 58004
KCOU 
19nm NE 
241754Z 15008KT 10SM -RA FEW070 SCT090 BKN110 22/22 A2993 RMK AO2 LTG DSNT SW AND W RAE10B53 PRESFR SLP127 P0002 60007 T02220217 10228 20217 58021
KVER 
20nm N 
241755Z AUTO 22009G17KT 10SM -TSRA SCT050 SCT065 BKN110 A2993 RMK AO2 LTG DSNT SE THRU SW 60042
KDMO 
30nm W 
241753Z AUTO 13017KT 10SM FEW004 BKN020 23/22 A2994 RMK AO2 LTG DSNT E AND SE RAE1658B04E46 PRESFR SLP131 P0005 60056 T02330217 10239 20222 58027
KAIZ 
32nm S 
241756Z AUTO VRB05KT 10SM FEW029 26/22 A3001 RMK AO2 LTG DSNT N AND NW SLP153 T02560217 10256 20222 50004
TAF
KJEF 
18nm E 
241723Z 2418/2518 19009KT 6SM -SHRA VCTS OVC050CB TEMPO 2418/2419 3SM TSRA FM241930 17011G19KT P6SM BKN050 FM250400 17010KT P6SM VCTS BKN050CB FM250600 18010KT 4SM TSRA OVC040CB FM251000 19010KT 6SM -SHRA VCTS BKN035CB FM251400 20011G19KT P6SM VCSH BKN040
KCOU 
19nm NE 
241723Z 2418/2518 22010G18KT 6SM -SHRA OVC050 FM241900 17011G19KT P6SM BKN050 FM250300 17010KT P6SM VCTS BKN050CB FM250500 18010KT 4SM TSRA OVC040CB FM250900 19010KT 6SM -SHRA VCTS BKN035CB FM251400 20011G19KT P6SM VCSH BKN040
NOTAMs
Click for the latest NOTAMs
NOTAMs are issued by the DoD/FAA and will open in a separate window not controlled by AirNav.

 

 
 

Would you like to see your business listed on this page?

 If your business provides an interesting product or service to pilots, flight crews, aircraft, or users of the Lions Emergency Evac Heliport, you should consider listing it here.  To start the listing process, click on the button below
 
Add a business
 

Other Pages about Lions Emergency Evac Heliport

Update a link
 
Copyright © AirNav, LLC. All rights reserved. Privacy Policy  Contact